FW0772 Weather Reports


Display with metric or nautical units.
time (UTC)temp
F
wind
direction
speed
MPH
gust
MPH
rain 1hr
in
rain 24hr
in
rain mn
in
humidity
%
barometer
mb
20180924092415 50 306 3.0 13.0 0.01 0.19 0.03 84 1018.4
20180924090915 53 296 6.0 14.0 0.00 0.18 0.02 74 1017.9
20180924085411 53 295 5.0 13.0 0.00 0.18 0.02 77 1017.8
20180924083910 54 305 9.0 17.0 0.00 0.18 0.02 76 1017.5
20180924082405 53 287 8.0 19.0 0.02 0.18 0.02 80 1017.3
20180924080900 51 288 8.0 17.0 0.02 0.18 0.02 87 1017.0
20180924075358 48 307 5.0 10.0 0.02 0.18 0.02 93 1017.1
20180924073858 47 267 5.0 12.0 0.02 0.18 0.02 91 1017.0
20180924072358 48 265 5.0 12.0 0.01 0.17 0.01 89 1016.9
20180924070855 49 288 4.0 15.0 0.00 0.16 0.00 89 1016.3
20180924065350 49 306 6.0 19.0 0.00 0.16 0.00 86 1015.9
20180924063846 48 300 6.0 11.0 0.00 0.16 0.00 86 1015.7
20180924062345 47 263 8.0 12.0 0.00 0.16 0.00 89 1015.3
20180924060842 46 287 6.0 12.0 0.00 0.16 0.00 90 1015.4
20180924055338 46 270 5.0 13.0 0.00 0.16 0.00 90 1015.2
20180924053834 45 251 6.0 12.0 0.00 0.16 0.00 91 1015.0
20180924052332 45 275 4.0 11.0 0.00 0.16 0.00 92 1014.8
20180924050828 45 275 5.0 11.0 0.00 0.16 0.00 92 1014.6
20180924045324 44 264 5.0 11.0 0.00 0.16 0.00 91 1014.5
20180924043856 44 257 4.0 8.0 0.00 0.16 0.00 91 1014.4
20180924042320 45 263 5.0 10.0 0.00 0.16 0.00 91 1014.3
20180924040817 45 276 5.0 10.0 0.00 0.16 0.00 90 1014.0
20180924035315 45 270 3.0 9.0 0.00 0.16 0.00 90 1013.8
20180924033814 46 291 6.0 12.0 0.00 0.16 0.00 90 1013.7
20180924032312 46 269 5.0 10.0 0.00 0.16 0.00 91 1013.6
20180924030807 46 273 4.0 13.0 0.00 0.16 0.00 91 1013.3
20180924025302 46 277 6.0 10.0 0.00 0.16 0.00 91 1013.0
20180924023800 46 264 4.0 10.0 0.00 0.16 0.00 92 1012.8
20180924022300 46 286 3.0 10.0 0.00 0.16 0.00 92 1012.6
20180924020759 46 286 6.0 11.0 0.00 0.16 0.00 93 1012.3
20180924015253 46 281 5.0 10.0 0.00 0.16 0.00 93 1012.1
20180924013752 46 294 3.0 9.0 0.00 0.16 0.00 94 1012.0
20180924012248 46 285 5.0 11.0 0.00 0.16 0.00 94 1011.8
20180924010747 46 285 3.0 10.0 0.00 0.16 0.00 94 1011.7
20180924005244 46 279 4.0 8.0 0.00 0.16 0.00 94 1011.4
20180924003741 47 250 4.0 8.0 0.00 0.16 0.00 94 1011.1
20180924002240 47 262 4.0 9.0 0.00 0.16 0.00 95 1010.8
20180924000738 47 263 3.0 6.0 0.00 0.16 0.00 95 1010.5
20180923235234 47 265 1.0 5.0 0.00 0.16 0.00 95 1010.5
20180923233731 47 270 3.0 7.0 0.00 0.16 0.00 95 1010.2
20180923232231 47 277 2.0 5.0 0.00 0.16 0.00 96 1009.9
20180923230730 47 284 3.0 7.0 0.00 0.16 0.00 96 1009.7
20180923225229 47 275 1.0 5.0 0.00 0.16 0.00 97 1009.4
20180923223726 47 262 2.0 5.0 0.00 0.16 0.00 97 1009.2
20180923222219 47 265 1.0 5.0 0.00 0.16 0.00 97 1009.1
20180923220717 46 246 1.0 3.0 0.00 0.16 0.00 97 1008.9
20180923215216 46 250 1.0 4.0 0.00 0.16 0.16 97 1008.7
20180923213714 47 263 2.0 4.0 0.01 0.16 0.16 97 1008.5
20180923212214 47 281 2.0 4.0 0.02 0.16 0.16 97 1008.4
20180923210717 47 238 0.0 3.0 0.03 0.16 0.16 96 1008.1
20180923205214 47 277 1.0 3.0 0.13 0.16 0.16 96 1008.2
20180923203712 48 276 1.0 3.0 0.13 0.15 0.15 96 1008.3
20180923202213 48 285 1.0 3.0 0.13 0.14 0.14 95 1008.0
20180923200712 49 318 1.0 7.0 0.11 0.13 0.13 95 1007.9
20180923195213 49 41 1.0 2.0 0.02 0.02 0.02 96 1007.1
20180923193710 49 288 0.0 3.0 0.02 0.02 0.02 96 1006.9
20180923192215 49 291 2.0 5.0 0.02 0.02 0.02 96 1006.9
20180923190714 48 277 1.0 3.0 0.02 0.02 0.02 96 1006.9
20180923185214 48 214 0.0 1.0 0.01 0.01 0.01 96 1006.4
20180923183712 48 214 0.0 1.0 0.00 0.00 0.00 95 1006.3
20180923182208 48 214 0.0 1.0 0.00 0.00 0.00 95 1006.1
20180923180709 49 214 0.0 2.0 0.00 0.00 0.00 94 1006.9
20180923175210 49 119 0.0 0.0 0.00 0.01 0.00 94 1006.3
20180923173708 49 119 0.0 0.0 0.00 0.01 0.00 93 1005.8
20180923172211 50 119 0.0 1.0 0.00 0.01 0.00 92 1005.8
20180923170706 50 119 1.0 2.0 0.00 0.01 0.00 91 1006.2
20180923165204 51 236 0.0 0.0 0.00 0.01 0.00 90 1006.9
20180923163704 51 236 0.0 1.0 0.00 0.01 0.00 89 1007.2
20180923162202 51 236 0.0 2.0 0.00 0.01 0.00 86 1007.5
20180923160700 52 147 0.0 0.0 0.00 0.01 0.00 83 1006.9
20180923155200 53 147 0.0 0.0 0.00 0.01 0.00 81 1007.0
20180923153659 54 236 0.0 0.0 0.00 0.01 0.00 80 1007.6
20180923152158 55 236 0.0 0.0 0.00 0.01 0.00 73 1007.4
20180923150657 55 236 0.0 0.0 0.00 0.01 0.00 70 1007.8
20180923145156 56 236 0.0 0.0 0.00 0.01 0.00 69 1007.9
20180923143656 56 236 0.0 0.0 0.00 0.01 0.00 69 1008.1
20180923142156 56 236 0.0 2.0 0.00 0.01 0.00 68 1008.8
20180923140648 56 236 1.0 3.0 0.00 0.01 0.00 66 1009.1
20180923135149 56 201 2.0 4.0 0.00 0.01 0.00 66 1009.4
20180923133651 57 183 1.0 5.0 0.00 0.01 0.00 67 1009.3
20180923132146 57 207 1.0 8.0 0.00 0.01 0.00 67 1009.4
20180923130644 57 217 1.0 4.0 0.00 0.01 0.00 66 1009.7
20180923125148 58 155 1.0 3.0 0.00 0.01 0.00 63 1009.9
20180923123644 58 182 0.0 4.0 0.00 0.01 0.00 65 1010.3
20180923122136 58 279 3.0 7.0 0.00 0.01 0.00 64 1010.7
20180923120638 59 252 2.0 6.0 0.00 0.01 0.00 63 1010.8
20180923115135 59 274 3.0 7.0 0.00 0.01 0.00 63 1011.0
20180923113632 59 288 2.0 5.0 0.00 0.01 0.00 64 1011.4
20180923112131 59 236 2.0 9.0 0.00 0.01 0.00 65 1011.4
20180923110630 60 212 2.0 9.0 0.00 0.01 0.00 64 1011.8
20180923105126 60 232 2.0 7.0 0.00 0.01 0.00 67 1011.9
20180923103623 59 252 2.0 7.0 0.00 0.01 0.00 70 1012.2
20180923102121 58 261 4.0 9.0 0.00 0.01 0.00 70 1012.4
20180923100620 59 257 4.0 7.0 0.00 0.01 0.00 71 1012.5
20180923095116 57 240 3.0 7.0 0.00 0.01 0.00 72 1012.5
20180923093614 57 225 4.0 8.0 0.00 0.01 0.00 74 1012.5